sensor_id;sensor_type;location;lat;lon;timestamp;P1;durP1;ratioP1;P2;durP2;ratioP2
70213;SDS011;60138;55.808;37.078;2022-07-23T00:02:12;13.87;;;7.83;;
70213;SDS011;60138;55.808;37.078;2022-07-23T00:04:38;16.02;;;7.50;;
70213;SDS011;60138;55.808;37.078;2022-07-23T00:07:04;17.57;;;7.60;;
70213;SDS011;60138;55.808;37.078;2022-07-23T00:09:30;15.15;;;7.70;;
70213;SDS011;60138;55.808;37.078;2022-07-23T00:11:55;15.73;;;7.47;;
70213;SDS011;60138;55.808;37.078;2022-07-23T00:14:21;16.33;;;7.22;;
70213;SDS011;60138;55.808;37.078;2022-07-23T00:16:47;13.60;;;7.50;;
70213;SDS011;60138;55.808;37.078;2022-07-23T00:19:13;14.43;;;6.63;;
70213;SDS011;60138;55.808;37.078;2022-07-23T00:21:39;17.05;;;8.15;;
70213;SDS011;60138;55.808;37.078;2022-07-23T00:24:05;15.50;;;7.43;;
70213;SDS011;60138;55.808;37.078;2022-07-23T00:26:31;12.60;;;7.40;;
70213;SDS011;60138;55.808;37.078;2022-07-23T00:28:57;14.07;;;7.85;;
70213;SDS011;60138;55.808;37.078;2022-07-23T00:31:23;13.60;;;7.75;;
70213;SDS011;60138;55.808;37.078;2022-07-23T00:33:49;12.87;;;8.30;;
70213;SDS011;60138;55.808;37.078;2022-07-23T00:36:15;19.58;;;7.88;;
70213;SDS011;60138;55.808;37.078;2022-07-23T00:38:41;15.65;;;8.52;;
70213;SDS011;60138;55.808;37.078;2022-07-23T00:41:07;21.70;;;9.52;;
70213;SDS011;60138;55.808;37.078;2022-07-23T00:43:33;18.25;;;9.48;;
70213;SDS011;60138;55.808;37.078;2022-07-23T00:45:59;16.50;;;8.53;;
70213;SDS011;60138;55.808;37.078;2022-07-23T00:48:25;14.38;;;8.38;;
70213;SDS011;60138;55.808;37.078;2022-07-23T00:50:51;14.45;;;8.23;;
70213;SDS011;60138;55.808;37.078;2022-07-23T00:53:17;15.35;;;8.30;;
70213;SDS011;60138;55.808;37.078;2022-07-23T00:55:45;11.40;;;7.13;;
70213;SDS011;60138;55.808;37.078;2022-07-23T00:58:12;17.10;;;8.20;;
70213;SDS011;60138;55.808;37.078;2022-07-23T01:00:38;11.65;;;7.95;;
70213;SDS011;60138;55.808;37.078;2022-07-23T01:03:04;14.57;;;9.18;;
70213;SDS011;60138;55.808;37.078;2022-07-23T01:05:30;15.57;;;8.05;;
70213;SDS011;60138;55.808;37.078;2022-07-23T01:07:56;19.13;;;9.20;;
70213;SDS011;60138;55.808;37.078;2022-07-23T01:10:22;17.27;;;8.20;;
70213;SDS011;60138;55.808;37.078;2022-07-23T01:12:48;18.63;;;9.03;;
70213;SDS011;60138;55.808;37.078;2022-07-23T01:15:13;14.20;;;8.88;;
70213;SDS011;60138;55.808;37.078;2022-07-23T01:17:39;17.30;;;8.60;;
70213;SDS011;60138;55.808;37.078;2022-07-23T01:20:05;15.83;;;8.70;;
70213;SDS011;60138;55.808;37.078;2022-07-23T01:22:32;20.83;;;8.98;;
70213;SDS011;60138;55.808;37.078;2022-07-23T01:24:58;14.73;;;8.25;;
70213;SDS011;60138;55.808;37.078;2022-07-23T01:27:26;12.77;;;7.70;;
70213;SDS011;60138;55.808;37.078;2022-07-23T01:29:57;13.32;;;7.57;;
70213;SDS011;60138;55.808;37.078;2022-07-23T01:32:25;11.85;;;6.90;;
70213;SDS011;60138;55.808;37.078;2022-07-23T01:34:51;12.05;;;7.45;;
70213;SDS011;60138;55.808;37.078;2022-07-23T01:37:18;11.77;;;8.35;;
70213;SDS011;60138;55.808;37.078;2022-07-23T01:39:44;16.20;;;7.00;;
70213;SDS011;60138;55.808;37.078;2022-07-23T01:42:10;11.65;;;7.28;;
70213;SDS011;60138;55.808;37.078;2022-07-23T01:44:36;11.30;;;6.88;;
70213;SDS011;60138;55.808;37.078;2022-07-23T01:47:10;15.05;;;8.18;;
70213;SDS011;60138;55.808;37.078;2022-07-23T01:49:37;10.63;;;6.90;;
70213;SDS011;60138;55.808;37.078;2022-07-23T01:52:18;13.80;;;6.88;;
70213;SDS011;60138;55.808;37.078;2022-07-23T01:54:48;12.57;;;8.02;;
70213;SDS011;60138;55.808;37.078;2022-07-23T01:57:14;13.55;;;6.63;;
70213;SDS011;60138;55.808;37.078;2022-07-23T01:59:39;15.03;;;7.30;;
70213;SDS011;60138;55.808;37.078;2022-07-23T02:02:06;11.90;;;7.25;;
70213;SDS011;60138;55.808;37.078;2022-07-23T02:04:32;16.55;;;7.38;;
70213;SDS011;60138;55.808;37.078;2022-07-23T02:06:58;13.67;;;7.23;;
70213;SDS011;60138;55.808;37.078;2022-07-23T02:09:25;14.18;;;7.57;;
70213;SDS011;60138;55.808;37.078;2022-07-23T02:11:51;10.63;;;6.88;;
70213;SDS011;60138;55.808;37.078;2022-07-23T02:14:18;15.20;;;6.80;;
70213;SDS011;60138;55.808;37.078;2022-07-23T02:16:45;10.90;;;7.43;;
70213;SDS011;60138;55.808;37.078;2022-07-23T02:19:11;12.43;;;7.43;;
70213;SDS011;60138;55.808;37.078;2022-07-23T02:21:36;13.85;;;6.97;;
70213;SDS011;60138;55.808;37.078;2022-07-23T02:24:03;14.60;;;7.83;;
70213;SDS011;60138;55.808;37.078;2022-07-23T02:26:29;15.35;;;7.95;;
70213;SDS011;60138;55.808;37.078;2022-07-23T02:28:56;14.20;;;7.13;;
70213;SDS011;60138;55.808;37.078;2022-07-23T02:31:21;16.77;;;6.97;;
70213;SDS011;60138;55.808;37.078;2022-07-23T02:33:47;12.75;;;7.93;;
70213;SDS011;60138;55.808;37.078;2022-07-23T02:36:15;13.20;;;8.00;;
70213;SDS011;60138;55.808;37.078;2022-07-23T02:38:41;11.05;;;8.45;;
70213;SDS011;60138;55.808;37.078;2022-07-23T02:41:08;12.47;;;7.40;;
70213;SDS011;60138;55.808;37.078;2022-07-23T02:43:33;10.68;;;7.35;;
70213;SDS011;60138;55.808;37.078;2022-07-23T02:45:59;17.02;;;7.90;;
70213;SDS011;60138;55.808;37.078;2022-07-23T02:48:25;11.02;;;8.02;;
70213;SDS011;60138;55.808;37.078;2022-07-23T02:50:52;12.30;;;7.68;;
70213;SDS011;60138;55.808;37.078;2022-07-23T02:53:22;12.48;;;7.40;;
70213;SDS011;60138;55.808;37.078;2022-07-23T02:55:49;12.73;;;7.95;;
70213;SDS011;60138;55.808;37.078;2022-07-23T02:58:15;14.82;;;8.05;;
70213;SDS011;60138;55.808;37.078;2022-07-23T03:00:41;15.33;;;8.10;;
70213;SDS011;60138;55.808;37.078;2022-07-23T03:03:07;12.02;;;7.43;;
70213;SDS011;60138;55.808;37.078;2022-07-23T03:05:33;11.93;;;7.25;;
70213;SDS011;60138;55.808;37.078;2022-07-23T03:08:00;17.75;;;7.93;;
70213;SDS011;60138;55.808;37.078;2022-07-23T03:10:26;13.93;;;7.83;;
70213;SDS011;60138;55.808;37.078;2022-07-23T03:12:52;10.85;;;6.82;;
70213;SDS011;60138;55.808;37.078;2022-07-23T03:15:17;11.93;;;7.47;;
70213;SDS011;60138;55.808;37.078;2022-07-23T03:17:43;11.80;;;7.22;;
70213;SDS011;60138;55.808;37.078;2022-07-23T03:20:09;12.10;;;7.47;;
70213;SDS011;60138;55.808;37.078;2022-07-23T03:22:37;12.70;;;7.65;;
70213;SDS011;60138;55.808;37.078;2022-07-23T03:25:03;10.52;;;7.40;;
70213;SDS011;60138;55.808;37.078;2022-07-23T03:27:33;10.53;;;6.70;;
70213;SDS011;60138;55.808;37.078;2022-07-23T03:29:59;13.00;;;7.00;;
70213;SDS011;60138;55.808;37.078;2022-07-23T03:32:25;13.60;;;7.78;;
70213;SDS011;60138;55.808;37.078;2022-07-23T03:34:52;12.05;;;6.60;;
70213;SDS011;60138;55.808;37.078;2022-07-23T03:37:18;12.70;;;7.22;;
70213;SDS011;60138;55.808;37.078;2022-07-23T03:39:45;11.33;;;6.80;;
70213;SDS011;60138;55.808;37.078;2022-07-23T03:42:11;12.73;;;6.68;;
70213;SDS011;60138;55.808;37.078;2022-07-23T03:44:37;14.52;;;8.23;;
70213;SDS011;60138;55.808;37.078;2022-07-23T03:47:04;8.93;;;6.75;;
70213;SDS011;60138;55.808;37.078;2022-07-23T03:49:30;14.37;;;7.63;;
70213;SDS011;60138;55.808;37.078;2022-07-23T03:51:56;13.07;;;7.95;;
70213;SDS011;60138;55.808;37.078;2022-07-23T03:54:22;11.27;;;6.45;;
70213;SDS011;60138;55.808;37.078;2022-07-23T03:56:48;13.60;;;7.18;;
70213;SDS011;60138;55.808;37.078;2022-07-23T03:59:14;12.07;;;7.00;;
70213;SDS011;60138;55.808;37.078;2022-07-23T04:01:40;14.98;;;7.63;;
70213;SDS011;60138;55.808;37.078;2022-07-23T04:04:06;15.63;;;7.50;;
70213;SDS011;60138;55.808;37.078;2022-07-23T04:06:32;11.30;;;6.97;;
70213;SDS011;60138;55.808;37.078;2022-07-23T04:08:58;13.48;;;7.03;;
70213;SDS011;60138;55.808;37.078;2022-07-23T04:11:24;8.97;;;6.37;;
70213;SDS011;60138;55.808;37.078;2022-07-23T04:13:50;15.52;;;6.60;;
70213;SDS011;60138;55.808;37.078;2022-07-23T04:16:16;16.40;;;6.93;;
70213;SDS011;60138;55.808;37.078;2022-07-23T04:18:45;12.10;;;5.70;;
70213;SDS011;60138;55.808;37.078;2022-07-23T04:21:15;9.20;;;5.90;;
70213;SDS011;60138;55.808;37.078;2022-07-23T04:23:41;10.20;;;5.80;;
70213;SDS011;60138;55.808;37.078;2022-07-23T04:26:07;11.98;;;6.28;;
70213;SDS011;60138;55.808;37.078;2022-07-23T04:28:33;12.97;;;7.03;;
70213;SDS011;60138;55.808;37.078;2022-07-23T04:31:00;17.80;;;6.25;;
70213;SDS011;60138;55.808;37.078;2022-07-23T04:33:28;20.08;;;7.47;;
70213;SDS011;60138;55.808;37.078;2022-07-23T04:35:56;13.95;;;6.65;;
70213;SDS011;60138;55.808;37.078;2022-07-23T04:38:22;19.37;;;6.73;;
70213;SDS011;60138;55.808;37.078;2022-07-23T04:40:51;13.07;;;6.18;;
70213;SDS011;60138;55.808;37.078;2022-07-23T04:43:17;12.40;;;6.90;;
70213;SDS011;60138;55.808;37.078;2022-07-23T04:45:46;10.77;;;5.70;;
70213;SDS011;60138;55.808;37.078;2022-07-23T04:48:12;11.97;;;6.37;;
70213;SDS011;60138;55.808;37.078;2022-07-23T04:50:38;11.68;;;6.45;;
70213;SDS011;60138;55.808;37.078;2022-07-23T04:53:04;12.80;;;6.50;;
70213;SDS011;60138;55.808;37.078;2022-07-23T04:55:30;8.55;;;5.55;;
70213;SDS011;60138;55.808;37.078;2022-07-23T04:57:57;9.30;;;5.10;;
70213;SDS011;60138;55.808;37.078;2022-07-23T05:00:23;7.50;;;4.80;;
70213;SDS011;60138;55.808;37.078;2022-07-23T05:02:49;8.68;;;4.97;;
70213;SDS011;60138;55.808;37.078;2022-07-23T05:05:16;10.93;;;5.32;;
70213;SDS011;60138;55.808;37.078;2022-07-23T05:07:43;13.75;;;5.90;;
70213;SDS011;60138;55.808;37.078;2022-07-23T05:10:09;10.40;;;4.87;;
70213;SDS011;60138;55.808;37.078;2022-07-23T05:12:35;7.80;;;4.90;;
70213;SDS011;60138;55.808;37.078;2022-07-23T05:15:01;9.98;;;5.45;;
70213;SDS011;60138;55.808;37.078;2022-07-23T05:17:29;11.55;;;5.55;;
70213;SDS011;60138;55.808;37.078;2022-07-23T05:19:55;13.05;;;5.25;;
70213;SDS011;60138;55.808;37.078;2022-07-23T05:22:21;15.13;;;5.93;;
70213;SDS011;60138;55.808;37.078;2022-07-23T05:24:47;14.45;;;5.57;;
70213;SDS011;60138;55.808;37.078;2022-07-23T05:27:13;8.65;;;5.88;;
70213;SDS011;60138;55.808;37.078;2022-07-23T05:29:39;9.63;;;5.37;;
70213;SDS011;60138;55.808;37.078;2022-07-23T05:32:05;8.43;;;4.85;;
70213;SDS011;60138;55.808;37.078;2022-07-23T05:34:34;10.20;;;5.32;;
70213;SDS011;60138;55.808;37.078;2022-07-23T05:37:00;9.53;;;5.37;;
70213;SDS011;60138;55.808;37.078;2022-07-23T05:39:26;7.68;;;4.90;;
70213;SDS011;60138;55.808;37.078;2022-07-23T05:41:51;8.45;;;5.10;;
70213;SDS011;60138;55.808;37.078;2022-07-23T05:44:17;13.25;;;5.55;;
70213;SDS011;60138;55.808;37.078;2022-07-23T05:46:44;9.47;;;5.73;;
70213;SDS011;60138;55.808;37.078;2022-07-23T05:49:15;8.48;;;4.63;;
70213;SDS011;60138;55.808;37.078;2022-07-23T05:52:06;7.07;;;5.15;;
70213;SDS011;60138;55.808;37.078;2022-07-23T05:55:07;12.20;;;5.25;;
70213;SDS011;60138;55.808;37.078;2022-07-23T05:57:36;8.38;;;4.80;;
70213;SDS011;60138;55.808;37.078;2022-07-23T06:00:05;9.00;;;5.33;;
70213;SDS011;60138;55.808;37.078;2022-07-23T06:02:39;10.10;;;5.50;;
70213;SDS011;60138;55.808;37.078;2022-07-23T06:05:07;7.82;;;5.35;;
70213;SDS011;60138;55.808;37.078;2022-07-23T06:07:34;7.80;;;5.35;;
70213;SDS011;60138;55.808;37.078;2022-07-23T06:10:00;7.95;;;5.18;;
70213;SDS011;60138;55.808;37.078;2022-07-23T06:12:26;9.60;;;4.97;;
70213;SDS011;60138;55.808;37.078;2022-07-23T06:14:53;9.05;;;5.13;;
70213;SDS011;60138;55.808;37.078;2022-07-23T06:17:19;10.15;;;5.07;;
70213;SDS011;60138;55.808;37.078;2022-07-23T06:19:45;8.57;;;5.05;;
70213;SDS011;60138;55.808;37.078;2022-07-23T06:22:10;7.43;;;5.30;;
70213;SDS011;60138;55.808;37.078;2022-07-23T06:24:37;8.90;;;6.07;;
70213;SDS011;60138;55.808;37.078;2022-07-23T06:27:03;9.50;;;4.78;;
70213;SDS011;60138;55.808;37.078;2022-07-23T06:29:29;6.73;;;5.00;;
70213;SDS011;60138;55.808;37.078;2022-07-23T06:31:55;7.65;;;4.95;;
70213;SDS011;60138;55.808;37.078;2022-07-23T06:34:21;7.07;;;4.80;;
70213;SDS011;60138;55.808;37.078;2022-07-23T06:36:47;9.00;;;5.37;;
70213;SDS011;60138;55.808;37.078;2022-07-23T06:39:13;8.82;;;5.13;;
70213;SDS011;60138;55.808;37.078;2022-07-23T06:41:38;8.52;;;5.60;;
70213;SDS011;60138;55.808;37.078;2022-07-23T06:44:04;6.83;;;4.73;;
70213;SDS011;60138;55.808;37.078;2022-07-23T06:46:33;8.50;;;4.82;;
70213;SDS011;60138;55.808;37.078;2022-07-23T06:48:59;10.15;;;5.32;;
70213;SDS011;60138;55.808;37.078;2022-07-23T06:51:28;7.45;;;5.13;;
70213;SDS011;60138;55.808;37.078;2022-07-23T06:53:53;7.00;;;4.80;;
70213;SDS011;60138;55.808;37.078;2022-07-23T06:56:19;7.88;;;5.30;;
70213;SDS011;60138;55.808;37.078;2022-07-23T06:58:45;9.48;;;5.10;;
70213;SDS011;60138;55.808;37.078;2022-07-23T07:01:11;9.93;;;5.20;;
70213;SDS011;60138;55.808;37.078;2022-07-23T07:03:37;9.98;;;5.68;;
70213;SDS011;60138;55.808;37.078;2022-07-23T07:06:03;11.93;;;5.72;;
70213;SDS011;60138;55.808;37.078;2022-07-23T07:08:29;9.33;;;5.03;;
70213;SDS011;60138;55.808;37.078;2022-07-23T07:10:55;11.38;;;5.45;;
70213;SDS011;60138;55.808;37.078;2022-07-23T07:13:20;7.50;;;5.60;;
70213;SDS011;60138;55.808;37.078;2022-07-23T07:15:46;9.13;;;4.90;;
70213;SDS011;60138;55.808;37.078;2022-07-23T07:18:12;7.10;;;4.22;;
70213;SDS011;60138;55.808;37.078;2022-07-23T07:20:38;9.48;;;5.32;;
70213;SDS011;60138;55.808;37.078;2022-07-23T07:23:04;7.10;;;4.70;;
70213;SDS011;60138;55.808;37.078;2022-07-23T07:25:29;9.05;;;4.47;;
70213;SDS011;60138;55.808;37.078;2022-07-23T07:27:55;8.70;;;5.00;;
70213;SDS011;60138;55.808;37.078;2022-07-23T07:30:21;5.97;;;4.05;;
70213;SDS011;60138;55.808;37.078;2022-07-23T07:32:47;8.50;;;4.13;;
70213;SDS011;60138;55.808;37.078;2022-07-23T07:35:13;6.20;;;4.20;;
70213;SDS011;60138;55.808;37.078;2022-07-23T07:37:38;9.40;;;4.78;;
70213;SDS011;60138;55.808;37.078;2022-07-23T07:40:04;17.70;;;5.10;;
70213;SDS011;60138;55.808;37.078;2022-07-23T07:42:31;8.75;;;4.28;;
70213;SDS011;60138;55.808;37.078;2022-07-23T07:44:56;7.20;;;4.68;;
70213;SDS011;60138;55.808;37.078;2022-07-23T07:47:22;6.43;;;4.90;;
70213;SDS011;60138;55.808;37.078;2022-07-23T07:49:48;7.60;;;4.30;;
70213;SDS011;60138;55.808;37.078;2022-07-23T07:52:14;7.07;;;5.05;;
70213;SDS011;60138;55.808;37.078;2022-07-23T07:54:40;8.53;;;4.40;;
70213;SDS011;60138;55.808;37.078;2022-07-23T07:57:05;6.00;;;4.18;;
70213;SDS011;60138;55.808;37.078;2022-07-23T07:59:31;6.47;;;4.17;;
70213;SDS011;60138;55.808;37.078;2022-07-23T08:01:57;7.22;;;4.07;;
70213;SDS011;60138;55.808;37.078;2022-07-23T08:04:23;7.63;;;4.57;;
70213;SDS011;60138;55.808;37.078;2022-07-23T08:06:48;7.28;;;3.75;;
70213;SDS011;60138;55.808;37.078;2022-07-23T08:09:14;7.35;;;4.63;;
70213;SDS011;60138;55.808;37.078;2022-07-23T08:11:40;7.47;;;3.73;;
70213;SDS011;60138;55.808;37.078;2022-07-23T08:14:06;10.63;;;4.53;;
70213;SDS011;60138;55.808;37.078;2022-07-23T08:16:32;9.53;;;3.93;;
70213;SDS011;60138;55.808;37.078;2022-07-23T08:18:57;6.55;;;3.70;;
70213;SDS011;60138;55.808;37.078;2022-07-23T08:21:23;6.85;;;4.05;;
70213;SDS011;60138;55.808;37.078;2022-07-23T08:23:49;7.13;;;3.33;;
70213;SDS011;60138;55.808;37.078;2022-07-23T08:26:15;9.75;;;4.47;;
70213;SDS011;60138;55.808;37.078;2022-07-23T08:28:41;8.17;;;4.00;;
70213;SDS011;60138;55.808;37.078;2022-07-23T08:31:06;10.52;;;4.88;;
70213;SDS011;60138;55.808;37.078;2022-07-23T08:33:32;6.97;;;4.10;;
70213;SDS011;60138;55.808;37.078;2022-07-23T08:35:58;5.82;;;3.90;;
70213;SDS011;60138;55.808;37.078;2022-07-23T08:38:24;6.30;;;3.75;;
70213;SDS011;60138;55.808;37.078;2022-07-23T08:40:52;6.45;;;4.15;;
70213;SDS011;60138;55.808;37.078;2022-07-23T08:43:22;7.83;;;4.67;;
70213;SDS011;60138;55.808;37.078;2022-07-23T08:45:51;6.07;;;3.95;;
70213;SDS011;60138;55.808;37.078;2022-07-23T08:48:20;8.07;;;3.92;;
70213;SDS011;60138;55.808;37.078;2022-07-23T08:50:50;6.82;;;3.85;;
70213;SDS011;60138;55.808;37.078;2022-07-23T08:53:18;6.25;;;4.15;;
70213;SDS011;60138;55.808;37.078;2022-07-23T08:55:46;6.73;;;4.60;;
70213;SDS011;60138;55.808;37.078;2022-07-23T08:58:13;7.20;;;4.15;;
70213;SDS011;60138;55.808;37.078;2022-07-23T09:00:39;5.60;;;3.90;;
70213;SDS011;60138;55.808;37.078;2022-07-23T09:03:05;5.63;;;3.72;;
70213;SDS011;60138;55.808;37.078;2022-07-23T09:05:31;6.18;;;3.95;;
70213;SDS011;60138;55.808;37.078;2022-07-23T09:08:10;7.47;;;3.43;;
70213;SDS011;60138;55.808;37.078;2022-07-23T09:21:07;6.55;;;4.07;;
70213;SDS011;60138;55.808;37.078;2022-07-23T09:23:38;7.00;;;4.32;;
70213;SDS011;60138;55.808;37.078;2022-07-23T09:26:30;9.02;;;4.82;;
70213;SDS011;60138;55.808;37.078;2022-07-23T09:29:15;7.18;;;4.10;;
70213;SDS011;60138;55.808;37.078;2022-07-23T09:34:18;5.93;;;3.78;;
70213;SDS011;60138;55.808;37.078;2022-07-23T09:36:47;6.00;;;4.10;;
70213;SDS011;60138;55.808;37.078;2022-07-23T09:39:15;8.05;;;4.18;;
70213;SDS011;60138;55.808;37.078;2022-07-23T09:41:53;8.23;;;4.63;;
70213;SDS011;60138;55.808;37.078;2022-07-23T09:44:19;7.10;;;4.20;;
70213;SDS011;60138;55.808;37.078;2022-07-23T09:46:47;8.85;;;4.50;;
70213;SDS011;60138;55.808;37.078;2022-07-23T09:49:17;6.97;;;4.32;;
70213;SDS011;60138;55.808;37.078;2022-07-23T09:54:21;7.30;;;4.30;;
70213;SDS011;60138;55.808;37.078;2022-07-23T09:56:47;6.63;;;3.83;;
70213;SDS011;60138;55.808;37.078;2022-07-23T09:59:14;7.75;;;4.38;;
70213;SDS011;60138;55.808;37.078;2022-07-23T10:01:42;8.00;;;4.55;;
70213;SDS011;60138;55.808;37.078;2022-07-23T10:04:08;5.82;;;4.18;;
70213;SDS011;60138;55.808;37.078;2022-07-23T10:06:57;10.70;;;4.60;;
70213;SDS011;60138;55.808;37.078;2022-07-23T10:09:43;7.65;;;5.00;;
70213;SDS011;60138;55.808;37.078;2022-07-23T10:12:30;6.50;;;4.28;;
70213;SDS011;60138;55.808;37.078;2022-07-23T10:14:59;8.90;;;4.05;;
70213;SDS011;60138;55.808;37.078;2022-07-23T10:17:27;6.67;;;4.90;;
70213;SDS011;60138;55.808;37.078;2022-07-23T10:19:53;7.53;;;4.20;;
70213;SDS011;60138;55.808;37.078;2022-07-23T10:22:21;6.45;;;4.35;;
70213;SDS011;60138;55.808;37.078;2022-07-23T10:30:45;6.13;;;4.10;;
70213;SDS011;60138;55.808;37.078;2022-07-23T10:36:42;6.95;;;4.38;;
70213;SDS011;60138;55.808;37.078;2022-07-23T10:39:22;8.93;;;4.60;;
70213;SDS011;60138;55.808;37.078;2022-07-23T10:42:08;8.88;;;5.00;;
70213;SDS011;60138;55.808;37.078;2022-07-23T10:44:47;7.00;;;4.17;;
70213;SDS011;60138;55.808;37.078;2022-07-23T10:47:29;6.57;;;3.92;;
70213;SDS011;60138;55.808;37.078;2022-07-23T10:50:16;9.30;;;4.50;;
70213;SDS011;60138;55.808;37.078;2022-07-23T10:57:57;5.90;;;4.10;;
70213;SDS011;60138;55.808;37.078;2022-07-23T11:00:27;6.95;;;4.13;;
70213;SDS011;60138;55.808;37.078;2022-07-23T11:02:59;8.55;;;5.00;;
70213;SDS011;60138;55.808;37.078;2022-07-23T11:05:51;7.68;;;4.90;;
70213;SDS011;60138;55.808;37.078;2022-07-23T11:08:20;9.40;;;5.07;;
70213;SDS011;60138;55.808;37.078;2022-07-23T11:32:01;7.03;;;4.63;;
70213;SDS011;60138;55.808;37.078;2022-07-23T11:34:35;7.18;;;4.35;;
70213;SDS011;60138;55.808;37.078;2022-07-23T11:37:07;7.05;;;4.20;;
70213;SDS011;60138;55.808;37.078;2022-07-23T11:39:38;7.40;;;4.38;;
70213;SDS011;60138;55.808;37.078;2022-07-23T11:42:05;15.80;;;4.72;;
70213;SDS011;60138;55.808;37.078;2022-07-23T11:44:35;6.93;;;4.63;;
70213;SDS011;60138;55.808;37.078;2022-07-23T11:47:06;6.95;;;4.45;;
70213;SDS011;60138;55.808;37.078;2022-07-23T11:49:33;8.18;;;4.80;;
70213;SDS011;60138;55.808;37.078;2022-07-23T11:54:34;8.13;;;4.68;;
70213;SDS011;60138;55.808;37.078;2022-07-23T11:57:02;7.40;;;4.50;;
70213;SDS011;60138;55.808;37.078;2022-07-23T11:59:35;7.03;;;4.45;;
70213;SDS011;60138;55.808;37.078;2022-07-23T12:02:02;8.88;;;5.20;;
70213;SDS011;60138;55.808;37.078;2022-07-23T12:04:43;6.43;;;4.05;;
70213;SDS011;60138;55.808;37.078;2022-07-23T12:10:05;7.40;;;3.80;;
70213;SDS011;60138;55.808;37.078;2022-07-23T12:12:58;6.07;;;4.20;;
70213;SDS011;60138;55.808;37.078;2022-07-23T12:15:28;7.63;;;3.80;;
70213;SDS011;60138;55.808;37.078;2022-07-23T12:17:56;5.32;;;3.85;;
70213;SDS011;60138;55.808;37.078;2022-07-23T12:20:25;10.80;;;4.70;;
70213;SDS011;60138;55.808;37.078;2022-07-23T12:22:55;7.63;;;3.90;;
70213;SDS011;60138;55.808;37.078;2022-07-23T12:25:23;12.60;;;4.53;;
70213;SDS011;60138;55.808;37.078;2022-07-23T12:28:52;7.90;;;4.43;;
70213;SDS011;60138;55.808;37.078;2022-07-23T12:30:57;6.82;;;4.45;;
70213;SDS011;60138;55.808;37.078;2022-07-23T12:33:30;7.95;;;4.25;;
70213;SDS011;60138;55.808;37.078;2022-07-23T12:35:59;4.60;;;3.37;;
70213;SDS011;60138;55.808;37.078;2022-07-23T12:38:27;8.48;;;4.10;;
70213;SDS011;60138;55.808;37.078;2022-07-23T12:40:57;5.32;;;4.07;;
70213;SDS011;60138;55.808;37.078;2022-07-23T12:43:28;6.05;;;3.25;;
70213;SDS011;60138;55.808;37.078;2022-07-23T12:46:03;5.00;;;3.53;;
70213;SDS011;60138;55.808;37.078;2022-07-23T12:48:53;6.63;;;3.90;;
70213;SDS011;60138;55.808;37.078;2022-07-23T12:51:29;8.65;;;3.65;;
70213;SDS011;60138;55.808;37.078;2022-07-23T12:53:57;21.95;;;4.18;;
70213;SDS011;60138;55.808;37.078;2022-07-23T12:56:28;5.95;;;3.60;;
70213;SDS011;60138;55.808;37.078;2022-07-23T12:59:08;17.52;;;5.50;;
70213;SDS011;60138;55.808;37.078;2022-07-23T13:01:35;27.47;;;5.07;;
70213;SDS011;60138;55.808;37.078;2022-07-23T13:06:29;5.85;;;3.33;;
70213;SDS011;60138;55.808;37.078;2022-07-23T13:08:59;5.50;;;3.40;;
70213;SDS011;60138;55.808;37.078;2022-07-23T13:11:25;6.22;;;3.28;;
70213;SDS011;60138;55.808;37.078;2022-07-23T13:13:51;4.35;;;3.00;;
70213;SDS011;60138;55.808;37.078;2022-07-23T13:16:16;4.50;;;3.00;;
70213;SDS011;60138;55.808;37.078;2022-07-23T13:18:42;5.57;;;3.40;;
70213;SDS011;60138;55.808;37.078;2022-07-23T13:21:08;7.10;;;3.33;;
70213;SDS011;60138;55.808;37.078;2022-07-23T13:23:35;12.80;;;3.72;;
70213;SDS011;60138;55.808;37.078;2022-07-23T13:26:01;10.07;;;3.70;;
70213;SDS011;60138;55.808;37.078;2022-07-23T13:28:27;7.93;;;4.30;;
70213;SDS011;60138;55.808;37.078;2022-07-23T13:30:53;7.28;;;3.58;;
70213;SDS011;60138;55.808;37.078;2022-07-23T13:33:20;7.45;;;3.47;;
70213;SDS011;60138;55.808;37.078;2022-07-23T13:35:47;7.10;;;3.40;;
70213;SDS011;60138;55.808;37.078;2022-07-23T13:38:13;5.80;;;3.17;;
70213;SDS011;60138;55.808;37.078;2022-07-23T13:40:40;11.02;;;3.88;;
70213;SDS011;60138;55.808;37.078;2022-07-23T13:43:08;9.65;;;3.50;;
70213;SDS011;60138;55.808;37.078;2022-07-23T13:45:35;10.40;;;4.03;;
70213;SDS011;60138;55.808;37.078;2022-07-23T13:48:01;20.47;;;9.30;;
70213;SDS011;60138;55.808;37.078;2022-07-23T13:50:28;11.82;;;5.82;;
70213;SDS011;60138;55.808;37.078;2022-07-23T13:52:53;9.10;;;4.10;;
70213;SDS011;60138;55.808;37.078;2022-07-23T13:55:19;13.00;;;5.03;;
70213;SDS011;60138;55.808;37.078;2022-07-23T13:57:45;14.53;;;5.30;;
70213;SDS011;60138;55.808;37.078;2022-07-23T14:00:11;11.38;;;4.82;;
70213;SDS011;60138;55.808;37.078;2022-07-23T14:02:38;8.15;;;4.40;;
70213;SDS011;60138;55.808;37.078;2022-07-23T14:05:05;7.55;;;4.00;;
70213;SDS011;60138;55.808;37.078;2022-07-23T14:07:34;11.38;;;3.95;;
70213;SDS011;60138;55.808;37.078;2022-07-23T14:10:00;27.97;;;5.30;;
70213;SDS011;60138;55.808;37.078;2022-07-23T14:12:28;19.00;;;5.13;;
70213;SDS011;60138;55.808;37.078;2022-07-23T14:14:55;17.23;;;4.72;;
70213;SDS011;60138;55.808;37.078;2022-07-23T14:17:21;13.20;;;4.20;;
70213;SDS011;60138;55.808;37.078;2022-07-23T14:19:47;10.23;;;4.17;;
70213;SDS011;60138;55.808;37.078;2022-07-23T14:22:13;28.85;;;7.30;;
70213;SDS011;60138;55.808;37.078;2022-07-23T14:24:39;52.15;;;10.05;;
70213;SDS011;60138;55.808;37.078;2022-07-23T14:27:05;23.90;;;5.43;;
70213;SDS011;60138;55.808;37.078;2022-07-23T14:29:32;9.50;;;4.00;;
70213;SDS011;60138;55.808;37.078;2022-07-23T14:31:59;7.75;;;3.55;;
70213;SDS011;60138;55.808;37.078;2022-07-23T14:34:25;13.07;;;5.65;;
70213;SDS011;60138;55.808;37.078;2022-07-23T14:36:51;7.72;;;4.35;;
70213;SDS011;60138;55.808;37.078;2022-07-23T14:39:17;21.85;;;5.25;;
70213;SDS011;60138;55.808;37.078;2022-07-23T14:41:43;18.87;;;4.90;;
70213;SDS011;60138;55.808;37.078;2022-07-23T14:44:10;9.73;;;3.85;;
70213;SDS011;60138;55.808;37.078;2022-07-23T14:46:36;6.03;;;3.70;;
70213;SDS011;60138;55.808;37.078;2022-07-23T14:49:02;7.75;;;3.85;;
70213;SDS011;60138;55.808;37.078;2022-07-23T14:51:28;10.23;;;4.40;;
70213;SDS011;60138;55.808;37.078;2022-07-23T14:53:53;8.77;;;4.60;;
70213;SDS011;60138;55.808;37.078;2022-07-23T14:56:19;7.95;;;4.00;;
70213;SDS011;60138;55.808;37.078;2022-07-23T14:58:45;8.20;;;5.40;;
70213;SDS011;60138;55.808;37.078;2022-07-23T15:01:11;8.10;;;5.60;;
70213;SDS011;60138;55.808;37.078;2022-07-23T15:03:37;7.18;;;4.88;;
70213;SDS011;60138;55.808;37.078;2022-07-23T15:06:03;5.85;;;3.80;;
70213;SDS011;60138;55.808;37.078;2022-07-23T15:08:30;4.97;;;3.40;;
70213;SDS011;60138;55.808;37.078;2022-07-23T15:10:56;4.20;;;3.10;;
70213;SDS011;60138;55.808;37.078;2022-07-23T15:13:21;8.88;;;3.38;;
70213;SDS011;60138;55.808;37.078;2022-07-23T15:15:47;5.13;;;2.90;;
70213;SDS011;60138;55.808;37.078;2022-07-23T15:18:13;5.57;;;2.90;;
70213;SDS011;60138;55.808;37.078;2022-07-23T15:20:39;5.53;;;3.10;;
70213;SDS011;60138;55.808;37.078;2022-07-23T15:23:05;10.33;;;3.27;;
70213;SDS011;60138;55.808;37.078;2022-07-23T15:25:31;7.07;;;3.37;;
70213;SDS011;60138;55.808;37.078;2022-07-23T15:27:58;6.80;;;2.90;;
70213;SDS011;60138;55.808;37.078;2022-07-23T15:30:24;6.20;;;3.78;;
70213;SDS011;60138;55.808;37.078;2022-07-23T15:32:51;9.07;;;3.35;;